sensor_id;sensor_type;location;lat;lon;timestamp;P1;durP1;ratioP1;P2;durP2;ratioP2
27728;SDS011;15126;42.186;24.340;2022-07-21T00:02:15;3.37;;;3.07;;
27728;SDS011;15126;42.186;24.340;2022-07-21T00:04:42;3.97;;;3.10;;
27728;SDS011;15126;42.186;24.340;2022-07-21T00:07:09;4.67;;;3.47;;
27728;SDS011;15126;42.186;24.340;2022-07-21T00:09:36;12.10;;;3.27;;
27728;SDS011;15126;42.186;24.340;2022-07-21T00:12:03;3.60;;;3.27;;
27728;SDS011;15126;42.186;24.340;2022-07-21T00:14:31;3.53;;;3.27;;
27728;SDS011;15126;42.186;24.340;2022-07-21T00:16:58;3.50;;;3.20;;
27728;SDS011;15126;42.186;24.340;2022-07-21T00:19:26;3.00;;;2.70;;
27728;SDS011;15126;42.186;24.340;2022-07-21T00:21:53;3.67;;;3.33;;
27728;SDS011;15126;42.186;24.340;2022-07-21T00:24:20;5.17;;;2.73;;
27728;SDS011;15126;42.186;24.340;2022-07-21T00:26:46;4.03;;;3.13;;
27728;SDS011;15126;42.186;24.340;2022-07-21T00:29:13;5.80;;;3.50;;
27728;SDS011;15126;42.186;24.340;2022-07-21T00:31:40;3.40;;;3.17;;
27728;SDS011;15126;42.186;24.340;2022-07-21T00:34:07;3.63;;;2.80;;
27728;SDS011;15126;42.186;24.340;2022-07-21T00:36:35;4.17;;;2.77;;
27728;SDS011;15126;42.186;24.340;2022-07-21T00:39:02;3.30;;;3.00;;
27728;SDS011;15126;42.186;24.340;2022-07-21T00:41:29;3.27;;;2.93;;
27728;SDS011;15126;42.186;24.340;2022-07-21T00:43:56;5.17;;;3.00;;
27728;SDS011;15126;42.186;24.340;2022-07-21T00:46:23;3.77;;;3.37;;
27728;SDS011;15126;42.186;24.340;2022-07-21T00:48:50;6.37;;;2.70;;
27728;SDS011;15126;42.186;24.340;2022-07-21T00:51:17;3.33;;;2.80;;
27728;SDS011;15126;42.186;24.340;2022-07-21T00:53:45;3.60;;;3.30;;
27728;SDS011;15126;42.186;24.340;2022-07-21T00:56:12;5.03;;;2.97;;
27728;SDS011;15126;42.186;24.340;2022-07-21T00:58:39;10.73;;;3.53;;
27728;SDS011;15126;42.186;24.340;2022-07-21T01:01:06;3.43;;;3.13;;
27728;SDS011;15126;42.186;24.340;2022-07-21T01:03:33;3.10;;;2.80;;
27728;SDS011;15126;42.186;24.340;2022-07-21T01:06:00;3.40;;;3.10;;
27728;SDS011;15126;42.186;24.340;2022-07-21T01:08:27;3.67;;;3.37;;
27728;SDS011;15126;42.186;24.340;2022-07-21T01:10:56;7.20;;;3.20;;
27728;SDS011;15126;42.186;24.340;2022-07-21T01:13:22;4.97;;;3.60;;
27728;SDS011;15126;42.186;24.340;2022-07-21T01:15:49;4.43;;;3.30;;
27728;SDS011;15126;42.186;24.340;2022-07-21T01:18:16;3.50;;;3.03;;
27728;SDS011;15126;42.186;24.340;2022-07-21T01:20:44;2.97;;;2.77;;
27728;SDS011;15126;42.186;24.340;2022-07-21T01:23:21;6.40;;;3.53;;
27728;SDS011;15126;42.186;24.340;2022-07-21T01:25:48;5.03;;;2.97;;
27728;SDS011;15126;42.186;24.340;2022-07-21T01:28:15;7.07;;;3.20;;
27728;SDS011;15126;42.186;24.340;2022-07-21T01:30:42;5.13;;;3.50;;
27728;SDS011;15126;42.186;24.340;2022-07-21T01:33:10;4.50;;;3.47;;
27728;SDS011;15126;42.186;24.340;2022-07-21T01:35:36;3.97;;;2.83;;
27728;SDS011;15126;42.186;24.340;2022-07-21T01:38:03;4.27;;;3.27;;
27728;SDS011;15126;42.186;24.340;2022-07-21T01:40:55;3.77;;;3.37;;
27728;SDS011;15126;42.186;24.340;2022-07-21T01:43:41;2.83;;;2.63;;
27728;SDS011;15126;42.186;24.340;2022-07-21T01:46:09;4.23;;;3.83;;
27728;SDS011;15126;42.186;24.340;2022-07-21T01:48:40;6.43;;;3.43;;
27728;SDS011;15126;42.186;24.340;2022-07-21T01:51:09;10.00;;;3.33;;
27728;SDS011;15126;42.186;24.340;2022-07-21T01:53:36;4.20;;;2.93;;
27728;SDS011;15126;42.186;24.340;2022-07-21T01:56:06;3.57;;;2.70;;
27728;SDS011;15126;42.186;24.340;2022-07-21T01:58:33;6.30;;;4.23;;
27728;SDS011;15126;42.186;24.340;2022-07-21T02:01:01;4.40;;;4.00;;
27728;SDS011;15126;42.186;24.340;2022-07-21T02:03:28;4.17;;;3.87;;
27728;SDS011;15126;42.186;24.340;2022-07-21T02:05:59;5.23;;;3.63;;
27728;SDS011;15126;42.186;24.340;2022-07-21T02:08:27;4.37;;;3.97;;
27728;SDS011;15126;42.186;24.340;2022-07-21T02:10:55;12.77;;;4.90;;
27728;SDS011;15126;42.186;24.340;2022-07-21T02:13:24;5.20;;;4.80;;
27728;SDS011;15126;42.186;24.340;2022-07-21T02:15:51;5.73;;;4.60;;
27728;SDS011;15126;42.186;24.340;2022-07-21T02:18:19;10.57;;;4.90;;
27728;SDS011;15126;42.186;24.340;2022-07-21T02:20:47;6.63;;;4.47;;
27728;SDS011;15126;42.186;24.340;2022-07-21T02:23:15;8.83;;;5.20;;
27728;SDS011;15126;42.186;24.340;2022-07-21T02:25:43;5.73;;;4.57;;
27728;SDS011;15126;42.186;24.340;2022-07-21T02:28:12;5.50;;;5.00;;
27728;SDS011;15126;42.186;24.340;2022-07-21T02:30:41;4.63;;;4.20;;
27728;SDS011;15126;42.186;24.340;2022-07-21T02:33:08;6.70;;;4.30;;
27728;SDS011;15126;42.186;24.340;2022-07-21T02:35:35;5.83;;;4.53;;
27728;SDS011;15126;42.186;24.340;2022-07-21T02:38:03;8.73;;;5.57;;
27728;SDS011;15126;42.186;24.340;2022-07-21T02:40:31;5.80;;;5.17;;
27728;SDS011;15126;42.186;24.340;2022-07-21T02:42:59;6.33;;;4.77;;
27728;SDS011;15126;42.186;24.340;2022-07-21T02:45:26;5.33;;;4.53;;
27728;SDS011;15126;42.186;24.340;2022-07-21T02:47:56;8.30;;;5.10;;
27728;SDS011;15126;42.186;24.340;2022-07-21T02:50:26;7.80;;;5.67;;
27728;SDS011;15126;42.186;24.340;2022-07-21T02:52:55;5.03;;;4.63;;
27728;SDS011;15126;42.186;24.340;2022-07-21T02:55:23;5.77;;;5.27;;
27728;SDS011;15126;42.186;24.340;2022-07-21T02:57:54;5.67;;;5.13;;
27728;SDS011;15126;42.186;24.340;2022-07-21T03:00:29;7.90;;;5.17;;
27728;SDS011;15126;42.186;24.340;2022-07-21T03:02:58;6.83;;;5.97;;
27728;SDS011;15126;42.186;24.340;2022-07-21T03:05:25;5.07;;;4.53;;
27728;SDS011;15126;42.186;24.340;2022-07-21T03:07:52;7.03;;;4.63;;
27728;SDS011;15126;42.186;24.340;2022-07-21T03:10:19;7.43;;;5.57;;
27728;SDS011;15126;42.186;24.340;2022-07-21T03:12:45;10.10;;;5.37;;
27728;SDS011;15126;42.186;24.340;2022-07-21T03:15:12;5.07;;;4.57;;
27728;SDS011;15126;42.186;24.340;2022-07-21T03:17:39;5.83;;;4.53;;
27728;SDS011;15126;42.186;24.340;2022-07-21T03:20:08;5.63;;;4.53;;
27728;SDS011;15126;42.186;24.340;2022-07-21T03:22:36;8.87;;;5.47;;
27728;SDS011;15126;42.186;24.340;2022-07-21T03:25:03;5.70;;;4.70;;
27728;SDS011;15126;42.186;24.340;2022-07-21T03:27:31;6.37;;;5.10;;
27728;SDS011;15126;42.186;24.340;2022-07-21T03:30:01;5.47;;;4.97;;
27728;SDS011;15126;42.186;24.340;2022-07-21T03:32:29;5.50;;;5.00;;
27728;SDS011;15126;42.186;24.340;2022-07-21T03:34:56;11.27;;;6.03;;
27728;SDS011;15126;42.186;24.340;2022-07-21T03:37:24;7.07;;;6.47;;
27728;SDS011;15126;42.186;24.340;2022-07-21T03:39:52;20.37;;;5.70;;
27728;SDS011;15126;42.186;24.340;2022-07-21T03:42:19;10.30;;;5.63;;
27728;SDS011;15126;42.186;24.340;2022-07-21T03:44:46;9.77;;;6.80;;
27728;SDS011;15126;42.186;24.340;2022-07-21T03:47:13;14.30;;;6.23;;
27728;SDS011;15126;42.186;24.340;2022-07-21T03:49:39;10.50;;;6.67;;
27728;SDS011;15126;42.186;24.340;2022-07-21T03:52:06;11.20;;;5.80;;
27728;SDS011;15126;42.186;24.340;2022-07-21T03:54:35;11.47;;;6.47;;
27728;SDS011;15126;42.186;24.340;2022-07-21T03:57:02;14.43;;;6.47;;
27728;SDS011;15126;42.186;24.340;2022-07-21T03:59:29;12.80;;;6.10;;
27728;SDS011;15126;42.186;24.340;2022-07-21T04:01:56;8.90;;;6.70;;
27728;SDS011;15126;42.186;24.340;2022-07-21T04:04:23;16.03;;;12.93;;
27728;SDS011;15126;42.186;24.340;2022-07-21T04:06:49;14.60;;;11.97;;
27728;SDS011;15126;42.186;24.340;2022-07-21T04:09:16;24.23;;;22.17;;
27728;SDS011;15126;42.186;24.340;2022-07-21T04:11:45;19.20;;;13.07;;
27728;SDS011;15126;42.186;24.340;2022-07-21T04:14:11;19.60;;;12.40;;
27728;SDS011;15126;42.186;24.340;2022-07-21T04:16:38;11.13;;;6.10;;
27728;SDS011;15126;42.186;24.340;2022-07-21T04:19:05;10.30;;;5.03;;
27728;SDS011;15126;42.186;24.340;2022-07-21T04:21:32;8.23;;;5.23;;
27728;SDS011;15126;42.186;24.340;2022-07-21T04:23:59;7.20;;;6.50;;
27728;SDS011;15126;42.186;24.340;2022-07-21T04:26:26;16.30;;;5.30;;
27728;SDS011;15126;42.186;24.340;2022-07-21T04:28:56;11.50;;;5.50;;
27728;SDS011;15126;42.186;24.340;2022-07-21T04:31:22;6.70;;;4.03;;
27728;SDS011;15126;42.186;24.340;2022-07-21T04:33:49;12.47;;;4.97;;
27728;SDS011;15126;42.186;24.340;2022-07-21T04:36:16;5.87;;;4.57;;
27728;SDS011;15126;42.186;24.340;2022-07-21T04:38:43;7.10;;;5.20;;
27728;SDS011;15126;42.186;24.340;2022-07-21T04:41:10;11.60;;;5.37;;
27728;SDS011;15126;42.186;24.340;2022-07-21T04:43:37;8.40;;;4.73;;
27728;SDS011;15126;42.186;24.340;2022-07-21T04:46:05;6.87;;;4.53;;
27728;SDS011;15126;42.186;24.340;2022-07-21T04:48:32;6.10;;;3.83;;
27728;SDS011;15126;42.186;24.340;2022-07-21T04:50:59;4.73;;;4.23;;
27728;SDS011;15126;42.186;24.340;2022-07-21T04:53:26;6.07;;;4.90;;
27728;SDS011;15126;42.186;24.340;2022-07-21T04:55:53;6.33;;;3.97;;
27728;SDS011;15126;42.186;24.340;2022-07-21T04:58:20;8.70;;;3.83;;
27728;SDS011;15126;42.186;24.340;2022-07-21T05:00:47;8.33;;;4.10;;
27728;SDS011;15126;42.186;24.340;2022-07-21T05:03:15;5.83;;;4.03;;
27728;SDS011;15126;42.186;24.340;2022-07-21T05:05:42;10.20;;;6.20;;
27728;SDS011;15126;42.186;24.340;2022-07-21T05:08:09;8.03;;;4.53;;
27728;SDS011;15126;42.186;24.340;2022-07-21T05:10:36;5.23;;;3.10;;
27728;SDS011;15126;42.186;24.340;2022-07-21T05:13:03;6.47;;;3.63;;
27728;SDS011;15126;42.186;24.340;2022-07-21T05:15:31;6.30;;;3.13;;
27728;SDS011;15126;42.186;24.340;2022-07-21T05:17:58;7.93;;;4.00;;
27728;SDS011;15126;42.186;24.340;2022-07-21T05:20:27;5.40;;;3.63;;
27728;SDS011;15126;42.186;24.340;2022-07-21T05:22:54;5.57;;;3.83;;
27728;SDS011;15126;42.186;24.340;2022-07-21T05:25:21;5.97;;;4.13;;
27728;SDS011;15126;42.186;24.340;2022-07-21T05:27:48;7.97;;;3.97;;
27728;SDS011;15126;42.186;24.340;2022-07-21T05:30:15;5.43;;;3.30;;
27728;SDS011;15126;42.186;24.340;2022-07-21T05:32:42;10.70;;;3.93;;
27728;SDS011;15126;42.186;24.340;2022-07-21T05:35:09;4.50;;;3.47;;
27728;SDS011;15126;42.186;24.340;2022-07-21T05:37:39;8.03;;;4.57;;
27728;SDS011;15126;42.186;24.340;2022-07-21T05:40:07;8.97;;;4.13;;
27728;SDS011;15126;42.186;24.340;2022-07-21T05:42:35;9.13;;;3.83;;
27728;SDS011;15126;42.186;24.340;2022-07-21T05:45:03;7.90;;;3.97;;
27728;SDS011;15126;42.186;24.340;2022-07-21T05:47:30;5.63;;;3.60;;
27728;SDS011;15126;42.186;24.340;2022-07-21T05:49:58;7.47;;;3.40;;
27728;SDS011;15126;42.186;24.340;2022-07-21T05:52:25;5.73;;;3.37;;
27728;SDS011;15126;42.186;24.340;2022-07-21T05:54:54;6.33;;;3.47;;
27728;SDS011;15126;42.186;24.340;2022-07-21T05:57:21;5.30;;;2.97;;
27728;SDS011;15126;42.186;24.340;2022-07-21T05:59:48;4.17;;;3.47;;
27728;SDS011;15126;42.186;24.340;2022-07-21T06:02:15;7.03;;;3.13;;
27728;SDS011;15126;42.186;24.340;2022-07-21T06:04:42;15.30;;;3.90;;
27728;SDS011;15126;42.186;24.340;2022-07-21T06:07:09;7.07;;;3.17;;
27728;SDS011;15126;42.186;24.340;2022-07-21T06:09:36;5.30;;;3.80;;
27728;SDS011;15126;42.186;24.340;2022-07-21T06:12:05;6.50;;;3.17;;
27728;SDS011;15126;42.186;24.340;2022-07-21T06:14:32;6.10;;;3.73;;
27728;SDS011;15126;42.186;24.340;2022-07-21T06:16:59;4.30;;;3.73;;
27728;SDS011;15126;42.186;24.340;2022-07-21T06:19:25;4.60;;;3.13;;
27728;SDS011;15126;42.186;24.340;2022-07-21T06:21:52;8.33;;;3.37;;
27728;SDS011;15126;42.186;24.340;2022-07-21T06:24:19;5.50;;;3.37;;
27728;SDS011;15126;42.186;24.340;2022-07-21T06:26:48;9.50;;;3.97;;
27728;SDS011;15126;42.186;24.340;2022-07-21T06:29:16;14.33;;;4.53;;
27728;SDS011;15126;42.186;24.340;2022-07-21T06:31:43;8.03;;;3.20;;
27728;SDS011;15126;42.186;24.340;2022-07-21T06:34:10;5.40;;;3.30;;
27728;SDS011;15126;42.186;24.340;2022-07-21T06:36:37;5.80;;;3.50;;
27728;SDS011;15126;42.186;24.340;2022-07-21T06:39:04;5.57;;;3.90;;
27728;SDS011;15126;42.186;24.340;2022-07-21T06:41:31;6.63;;;3.17;;
27728;SDS011;15126;42.186;24.340;2022-07-21T06:43:58;4.10;;;3.70;;
27728;SDS011;15126;42.186;24.340;2022-07-21T06:46:28;5.07;;;3.50;;
27728;SDS011;15126;42.186;24.340;2022-07-21T06:48:55;4.67;;;3.60;;
27728;SDS011;15126;42.186;24.340;2022-07-21T06:51:22;5.25;;;3.53;;
27728;SDS011;15126;42.186;24.340;2022-07-21T06:53:49;9.93;;;3.45;;
27728;SDS011;15126;42.186;24.340;2022-07-21T06:56:16;4.25;;;3.53;;
27728;SDS011;15126;42.186;24.340;2022-07-21T06:58:44;4.70;;;3.15;;
27728;SDS011;15126;42.186;24.340;2022-07-21T07:01:11;4.35;;;2.95;;
27728;SDS011;15126;42.186;24.340;2022-07-21T07:03:43;4.43;;;3.25;;
27728;SDS011;15126;42.186;24.340;2022-07-21T07:06:11;6.82;;;3.22;;
27728;SDS011;15126;42.186;24.340;2022-07-21T07:08:38;8.95;;;3.58;;
27728;SDS011;15126;42.186;24.340;2022-07-21T07:11:06;3.88;;;3.25;;
27728;SDS011;15126;42.186;24.340;2022-07-21T07:13:34;4.85;;;3.03;;
27728;SDS011;15126;42.186;24.340;2022-07-21T07:16:01;3.40;;;3.10;;
27728;SDS011;15126;42.186;24.340;2022-07-21T07:18:29;8.52;;;3.78;;
27728;SDS011;15126;42.186;24.340;2022-07-21T07:20:58;4.18;;;3.22;;
27728;SDS011;15126;42.186;24.340;2022-07-21T07:23:25;8.27;;;3.38;;
27728;SDS011;15126;42.186;24.340;2022-07-21T07:25:52;14.90;;;3.40;;
27728;SDS011;15126;42.186;24.340;2022-07-21T07:28:20;5.78;;;3.30;;
27728;SDS011;15126;42.186;24.340;2022-07-21T07:30:47;5.88;;;3.55;;
27728;SDS011;15126;42.186;24.340;2022-07-21T07:33:15;4.40;;;3.40;;
27728;SDS011;15126;42.186;24.340;2022-07-21T07:35:42;9.23;;;3.67;;
27728;SDS011;15126;42.186;24.340;2022-07-21T07:38:13;4.10;;;3.15;;
27728;SDS011;15126;42.186;24.340;2022-07-21T07:40:40;4.40;;;3.40;;
27728;SDS011;15126;42.186;24.340;2022-07-21T07:43:08;9.73;;;3.40;;
27728;SDS011;15126;42.186;24.340;2022-07-21T07:45:35;6.90;;;3.63;;
27728;SDS011;15126;42.186;24.340;2022-07-21T07:48:03;5.03;;;3.63;;
27728;SDS011;15126;42.186;24.340;2022-07-21T07:50:31;5.18;;;3.13;;
27728;SDS011;15126;42.186;24.340;2022-07-21T07:52:58;7.32;;;4.00;;
27728;SDS011;15126;42.186;24.340;2022-07-21T07:55:27;4.20;;;3.70;;
27728;SDS011;15126;42.186;24.340;2022-07-21T07:57:53;6.20;;;3.83;;
27728;SDS011;15126;42.186;24.340;2022-07-21T08:00:21;8.00;;;3.60;;
27728;SDS011;15126;42.186;24.340;2022-07-21T08:02:48;5.78;;;3.40;;
27728;SDS011;15126;42.186;24.340;2022-07-21T08:07:05;5.10;;;3.10;;
27728;SDS011;15126;42.186;24.340;2022-07-21T08:09:50;3.53;;;2.88;;
27728;SDS011;15126;42.186;24.340;2022-07-21T08:12:36;6.60;;;3.53;;
27728;SDS011;15126;42.186;24.340;2022-07-21T08:15:22;3.83;;;3.20;;
27728;SDS011;15126;42.186;24.340;2022-07-21T08:18:08;7.72;;;2.72;;
27728;SDS011;15126;42.186;24.340;2022-07-21T08:20:54;4.07;;;3.33;;
27728;SDS011;15126;42.186;24.340;2022-07-21T08:23:41;3.05;;;2.80;;
27728;SDS011;15126;42.186;24.340;2022-07-21T08:26:26;6.85;;;3.28;;
27728;SDS011;15126;42.186;24.340;2022-07-21T08:29:12;4.53;;;3.90;;
27728;SDS011;15126;42.186;24.340;2022-07-21T08:31:57;3.88;;;3.03;;
27728;SDS011;15126;42.186;24.340;2022-07-21T08:34:43;3.45;;;3.10;;
27728;SDS011;15126;42.186;24.340;2022-07-21T08:37:28;3.47;;;2.90;;
27728;SDS011;15126;42.186;24.340;2022-07-21T08:40:15;4.70;;;4.10;;
27728;SDS011;15126;42.186;24.340;2022-07-21T08:43:02;4.30;;;3.38;;
27728;SDS011;15126;42.186;24.340;2022-07-21T08:45:50;5.90;;;3.92;;
27728;SDS011;15126;42.186;24.340;2022-07-21T08:48:36;5.57;;;5.00;;
27728;SDS011;15126;42.186;24.340;2022-07-21T08:51:21;4.00;;;2.97;;
27728;SDS011;15126;42.186;24.340;2022-07-21T08:54:07;3.95;;;3.55;;
27728;SDS011;15126;42.186;24.340;2022-07-21T08:56:54;3.60;;;3.10;;
27728;SDS011;15126;42.186;24.340;2022-07-21T08:59:39;8.13;;;4.00;;
27728;SDS011;15126;42.186;24.340;2022-07-21T09:02:25;3.53;;;3.00;;
27728;SDS011;15126;42.186;24.340;2022-07-21T09:05:12;4.30;;;3.80;;
27728;SDS011;15126;42.186;24.340;2022-07-21T09:07:58;13.07;;;11.98;;
27728;SDS011;15126;42.186;24.340;2022-07-21T09:10:43;6.47;;;5.47;;
27728;SDS011;15126;42.186;24.340;2022-07-21T09:13:30;3.38;;;3.17;;
27728;SDS011;15126;42.186;24.340;2022-07-21T09:16:18;6.78;;;3.33;;
27728;SDS011;15126;42.186;24.340;2022-07-21T09:19:19;4.15;;;2.83;;
27728;SDS011;15126;42.186;24.340;2022-07-21T09:22:07;5.90;;;3.67;;
27728;SDS011;15126;42.186;24.340;2022-07-21T09:24:57;6.70;;;3.50;;
27728;SDS011;15126;42.186;24.340;2022-07-21T09:27:44;3.28;;;2.78;;
27728;SDS011;15126;42.186;24.340;2022-07-21T09:30:31;3.75;;;3.08;;
27728;SDS011;15126;42.186;24.340;2022-07-21T09:33:33;7.35;;;3.45;;
27728;SDS011;15126;42.186;24.340;2022-07-21T09:36:20;3.78;;;2.50;;
27728;SDS011;15126;42.186;24.340;2022-07-21T09:39:05;4.25;;;3.00;;
27728;SDS011;15126;42.186;24.340;2022-07-21T09:41:50;4.20;;;2.67;;
27728;SDS011;15126;42.186;24.340;2022-07-21T09:44:36;3.08;;;2.85;;
27728;SDS011;15126;42.186;24.340;2022-07-21T09:47:24;6.28;;;2.65;;
27728;SDS011;15126;42.186;24.340;2022-07-21T09:50:12;10.65;;;2.97;;
27728;SDS011;15126;42.186;24.340;2022-07-21T09:52:59;3.95;;;3.55;;
27728;SDS011;15126;42.186;24.340;2022-07-21T09:55:46;4.80;;;3.30;;
27728;SDS011;15126;42.186;24.340;2022-07-21T09:58:32;3.75;;;3.35;;
27728;SDS011;15126;42.186;24.340;2022-07-21T10:01:17;7.72;;;4.00;;
27728;SDS011;15126;42.186;24.340;2022-07-21T10:04:04;3.92;;;2.72;;
27728;SDS011;15126;42.186;24.340;2022-07-21T10:06:50;5.75;;;3.67;;
27728;SDS011;15126;42.186;24.340;2022-07-21T10:09:36;4.18;;;3.08;;
27728;SDS011;15126;42.186;24.340;2022-07-21T10:12:22;3.63;;;3.20;;
27728;SDS011;15126;42.186;24.340;2022-07-21T10:15:09;3.10;;;2.90;;
27728;SDS011;15126;42.186;24.340;2022-07-21T10:17:55;3.83;;;3.05;;
27728;SDS011;15126;42.186;24.340;2022-07-21T10:20:44;8.77;;;3.22;;
27728;SDS011;15126;42.186;24.340;2022-07-21T10:23:34;5.45;;;3.97;;
27728;SDS011;15126;42.186;24.340;2022-07-21T10:26:22;5.80;;;3.50;;
27728;SDS011;15126;42.186;24.340;2022-07-21T10:29:08;4.47;;;3.15;;
27728;SDS011;15126;42.186;24.340;2022-07-21T10:31:54;9.45;;;3.67;;
27728;SDS011;15126;42.186;24.340;2022-07-21T10:34:54;4.57;;;2.95;;
27728;SDS011;15126;42.186;24.340;2022-07-21T10:40:45;4.72;;;3.35;;
27728;SDS011;15126;42.186;24.340;2022-07-21T10:46:40;6.63;;;3.90;;
27728;SDS011;15126;42.186;24.340;2022-07-21T10:49:40;3.28;;;2.95;;
27728;SDS011;15126;42.186;24.340;2022-07-21T10:55:54;9.05;;;3.78;;
27728;SDS011;15126;42.186;24.340;2022-07-21T10:58:40;3.72;;;3.42;;
27728;SDS011;15126;42.186;24.340;2022-07-21T11:01:26;5.88;;;3.45;;
27728;SDS011;15126;42.186;24.340;2022-07-21T11:04:12;3.72;;;3.13;;
27728;SDS011;15126;42.186;24.340;2022-07-21T11:07:01;4.70;;;3.17;;
27728;SDS011;15126;42.186;24.340;2022-07-21T11:13:16;5.38;;;3.28;;
27728;SDS011;15126;42.186;24.340;2022-07-21T11:16:03;3.42;;;3.13;;
27728;SDS011;15126;42.186;24.340;2022-07-21T11:18:48;2.83;;;2.63;;
27728;SDS011;15126;42.186;24.340;2022-07-21T11:21:34;4.10;;;3.70;;
27728;SDS011;15126;42.186;24.340;2022-07-21T11:24:20;5.10;;;3.38;;
27728;SDS011;15126;42.186;24.340;2022-07-21T11:27:07;5.50;;;3.80;;
27728;SDS011;15126;42.186;24.340;2022-07-21T11:29:56;3.95;;;3.60;;
27728;SDS011;15126;42.186;24.340;2022-07-21T11:32:45;5.00;;;3.78;;
27728;SDS011;15126;42.186;24.340;2022-07-21T11:35:31;6.13;;;4.05;;
27728;SDS011;15126;42.186;24.340;2022-07-21T11:38:22;3.75;;;3.38;;
27728;SDS011;15126;42.186;24.340;2022-07-21T11:44:21;4.30;;;3.88;;
27728;SDS011;15126;42.186;24.340;2022-07-21T11:47:11;3.92;;;3.58;;
27728;SDS011;15126;42.186;24.340;2022-07-21T11:50:00;3.63;;;3.30;;
27728;SDS011;15126;42.186;24.340;2022-07-21T11:52:46;3.80;;;3.45;;
27728;SDS011;15126;42.186;24.340;2022-07-21T11:55:32;5.30;;;3.70;;
27728;SDS011;15126;42.186;24.340;2022-07-21T11:58:18;5.68;;;3.50;;
27728;SDS011;15126;42.186;24.340;2022-07-21T12:01:04;3.67;;;3.38;;
27728;SDS011;15126;42.186;24.340;2022-07-21T12:03:52;4.65;;;4.30;;
27728;SDS011;15126;42.186;24.340;2022-07-21T12:06:37;8.10;;;3.53;;
27728;SDS011;15126;42.186;24.340;2022-07-21T12:09:23;7.05;;;3.65;;
27728;SDS011;15126;42.186;24.340;2022-07-21T12:12:09;4.80;;;3.95;;
27728;SDS011;15126;42.186;24.340;2022-07-21T12:14:55;4.63;;;3.47;;
27728;SDS011;15126;42.186;24.340;2022-07-21T12:17:43;6.93;;;3.83;;
27728;SDS011;15126;42.186;24.340;2022-07-21T12:20:32;3.90;;;3.08;;
27728;SDS011;15126;42.186;24.340;2022-07-21T12:23:20;4.95;;;3.28;;
27728;SDS011;15126;42.186;24.340;2022-07-21T12:26:07;5.20;;;3.75;;
27728;SDS011;15126;42.186;24.340;2022-07-21T12:29:05;4.25;;;3.63;;
27728;SDS011;15126;42.186;24.340;2022-07-21T12:31:51;4.53;;;4.10;;
27728;SDS011;15126;42.186;24.340;2022-07-21T12:34:47;3.95;;;3.65;;
27728;SDS011;15126;42.186;24.340;2022-07-21T12:40:56;4.78;;;3.58;;
27728;SDS011;15126;42.186;24.340;2022-07-21T12:43:42;4.95;;;3.88;;
27728;SDS011;15126;42.186;24.340;2022-07-21T12:46:28;5.78;;;3.60;;
27728;SDS011;15126;42.186;24.340;2022-07-21T12:49:14;5.53;;;3.35;;
27728;SDS011;15126;42.186;24.340;2022-07-21T12:52:00;3.60;;;3.30;;
27728;SDS011;15126;42.186;24.340;2022-07-21T12:54:45;4.05;;;3.72;;
27728;SDS011;15126;42.186;24.340;2022-07-21T12:57:32;3.78;;;3.45;;
27728;SDS011;15126;42.186;24.340;2022-07-21T13:00:21;4.70;;;3.63;;
27728;SDS011;15126;42.186;24.340;2022-07-21T13:03:07;3.97;;;3.00;;
27728;SDS011;15126;42.186;24.340;2022-07-21T13:05:53;4.10;;;3.30;;
27728;SDS011;15126;42.186;24.340;2022-07-21T13:08:39;4.82;;;3.80;;
27728;SDS011;15126;42.186;24.340;2022-07-21T13:11:25;4.45;;;4.00;;
27728;SDS011;15126;42.186;24.340;2022-07-21T13:14:12;5.63;;;3.80;;
27728;SDS011;15126;42.186;24.340;2022-07-21T13:16:57;4.80;;;4.07;;
27728;SDS011;15126;42.186;24.340;2022-07-21T13:19:43;6.13;;;4.18;;
27728;SDS011;15126;42.186;24.340;2022-07-21T13:22:28;4.47;;;4.03;;
27728;SDS011;15126;42.186;24.340;2022-07-21T13:25:14;5.95;;;3.60;;
27728;SDS011;15126;42.186;24.340;2022-07-21T13:28:00;4.22;;;3.80;;
27728;SDS011;15126;42.186;24.340;2022-07-21T13:30:47;6.43;;;4.13;;
27728;SDS011;15126;42.186;24.340;2022-07-21T13:33:33;7.70;;;3.45;;
27728;SDS011;15126;42.186;24.340;2022-07-21T13:36:19;3.83;;;3.53;;
27728;SDS011;15126;42.186;24.340;2022-07-21T13:39:05;5.00;;;3.65;;
27728;SDS011;15126;42.186;24.340;2022-07-21T13:41:52;5.57;;;3.90;;
27728;SDS011;15126;42.186;24.340;2022-07-21T13:44:37;4.47;;;3.67;;
27728;SDS011;15126;42.186;24.340;2022-07-21T13:47:24;4.97;;;3.42;;
27728;SDS011;15126;42.186;24.340;2022-07-21T13:50:10;3.50;;;3.30;;
27728;SDS011;15126;42.186;24.340;2022-07-21T13:52:56;4.13;;;3.72;;
27728;SDS011;15126;42.186;24.340;2022-07-21T13:55:41;4.30;;;3.97;;
27728;SDS011;15126;42.186;24.340;2022-07-21T13:58:30;4.50;;;3.67;;
27728;SDS011;15126;42.186;24.340;2022-07-21T14:01:16;4.18;;;3.85;;
27728;SDS011;15126;42.186;24.340;2022-07-21T14:04:03;5.22;;;3.63;;
27728;SDS011;15126;42.186;24.340;2022-07-21T14:06:49;6.95;;;4.38;;
27728;SDS011;15126;42.186;24.340;2022-07-21T14:09:36;7.05;;;3.53;;
27728;SDS011;15126;42.186;24.340;2022-07-21T14:12:21;5.30;;;3.45;;
27728;SDS011;15126;42.186;24.340;2022-07-21T14:15:07;4.07;;;3.70;;
27728;SDS011;15126;42.186;24.340;2022-07-21T14:17:53;10.45;;;4.45;;
27728;SDS011;15126;42.186;24.340;2022-07-21T14:20:39;5.25;;;4.28;;
27728;SDS011;15126;42.186;24.340;2022-07-21T14:23:25;6.68;;;4.03;;
27728;SDS011;15126;42.186;24.340;2022-07-21T14:26:10;3.75;;;3.45;;
27728;SDS011;15126;42.186;24.340;2022-07-21T14:28:56;3.75;;;3.35;;
27728;SDS011;15126;42.186;24.340;2022-07-21T14:31:41;6.57;;;4.15;;
27728;SDS011;15126;42.186;24.340;2022-07-21T14:34:27;4.95;;;3.63;;
27728;SDS011;15126;42.186;24.340;2022-07-21T14:37:13;4.93;;;4.22;;
27728;SDS011;15126;42.186;24.340;2022-07-21T14:39:59;5.70;;;3.92;;
27728;SDS011;15126;42.186;24.340;2022-07-21T14:42:45;6.65;;;4.10;;
27728;SDS011;15126;42.186;24.340;2022-07-21T14:45:31;5.78;;;3.72;;
27728;SDS011;15126;42.186;24.340;2022-07-21T14:48:17;5.85;;;3.83;;
27728;SDS011;15126;42.186;24.340;2022-07-21T14:51:02;7.00;;;3.80;;
27728;SDS011;15126;42.186;24.340;2022-07-21T14:53:49;9.23;;;5.05;;
27728;SDS011;15126;42.186;24.340;2022-07-21T14:56:35;5.80;;;4.30;;
27728;SDS011;15126;42.186;24.340;2022-07-21T14:59:20;5.68;;;4.30;;
27728;SDS011;15126;42.186;24.340;2022-07-21T15:02:06;8.88;;;4.18;;
27728;SDS011;15126;42.186;24.340;2022-07-21T15:04:52;5.60;;;3.92;;
27728;SDS011;15126;42.186;24.340;2022-07-21T15:07:37;5.90;;;3.47;;
27728;SDS011;15126;42.186;24.340;2022-07-21T15:10:24;9.90;;;4.38;;
27728;SDS011;15126;42.186;24.340;2022-07-21T15:13:10;8.75;;;5.22;;
27728;SDS011;15126;42.186;24.340;2022-07-21T15:15:56;8.57;;;3.97;;
27728;SDS011;15126;42.186;24.340;2022-07-21T15:18:42;8.45;;;4.53;;
27728;SDS011;15126;42.186;24.340;2022-07-21T15:21:28;9.02;;;4.07;;
27728;SDS011;15126;42.186;24.340;2022-07-21T15:24:14;4.70;;;4.20;;
27728;SDS011;15126;42.186;24.340;2022-07-21T15:27:01;15.35;;;5.80;;
27728;SDS011;15126;42.186;24.340;2022-07-21T15:29:47;13.20;;;5.10;;
27728;SDS011;15126;42.186;24.340;2022-07-21T15:32:32;12.30;;;7.35;;
27728;SDS011;15126;42.186;24.340;2022-07-21T15:35:18;16.55;;;6.82;;
27728;SDS011;15126;42.186;24.340;2022-07-21T15:38:03;7.50;;;4.88;;
27728;SDS011;15126;42.186;24.340;2022-07-21T15:40:49;27.08;;;5.93;;
27728;SDS011;15126;42.186;24.340;2022-07-21T15:43:36;8.93;;;4.75;;
27728;SDS011;15126;42.186;24.340;2022-07-21T15:46:21;12.50;;;5.68;;
27728;SDS011;15126;42.186;24.340;2022-07-21T15:49:07;4.45;;;3.80;;